Time;durP1;ratioP1;P1;durP2;ratioP2;P2;SDS_P1;SDS_P2;PMS_P1;PMS_P2;Temp;Humidity;BMP_temperature;BMP_pressure;BME280_temperature;BME280_humidity;BME280_pressure;Samples;Min_cycle;Max_cycle;Signal;HPM_P1;HPM_P2
2023/06/10 00:02:26;;;;;;;7.70;7.00;;;;;;;23.05;47.98;99555.69;4942479;28;20131;-88
2023/06/10 00:04:53;;;;;;;6.95;6.25;;;;;;;23.04;48.10;99542.38;4950816;28;20050;-88
2023/06/10 00:07:21;;;;;;;7.47;6.72;;;;;;;22.95;48.18;99541.81;4906532;28;20047;-89
2023/06/10 00:09:48;;;;;;;6.93;6.25;;;;;;;22.99;48.37;99542.22;4938400;28;20050;-87
2023/06/10 00:12:16;;;;;;;8.00;6.70;;;;;;;22.88;48.13;99528.34;4906250;28;20047;-89
2023/06/10 00:14:44;;;;;;;7.15;6.40;;;;;;;22.90;48.45;99545.19;4930443;28;20106;-89
2023/06/10 00:17:11;;;;;;;7.05;6.35;;;;;;;22.87;48.29;99528.53;4890866;28;20059;-88
2023/06/10 00:19:41;;;;;;;7.40;6.53;;;;;;;22.88;48.40;99538.34;4914165;28;20051;-88
2023/06/10 00:22:10;;;;;;;7.38;6.45;;;;;;;22.88;48.35;99546.47;4889904;28;20047;-87
2023/06/10 00:24:38;;;;;;;6.75;6.15;;;;;;;22.86;48.17;99540.44;4916554;28;20134;-89
2023/06/10 00:27:08;;;;;;;7.00;6.22;;;;;;;22.80;48.56;99538.63;4911516;28;20058;-87
2023/06/10 00:29:35;;;;;;;7.75;6.28;;;;;;;22.82;48.60;99550.03;4919056;28;20254;-88
2023/06/10 00:32:02;;;;;;;10.45;6.35;;;;;;;22.74;48.84;99546.59;4900240;28;20540;-88
2023/06/10 00:34:30;;;;;;;7.35;6.03;;;;;;;22.73;48.44;99539.50;4936053;28;20459;-88
2023/06/10 00:36:57;;;;;;;6.75;6.03;;;;;;;22.69;48.76;99543.69;4942425;28;20062;-87
2023/06/10 00:39:27;;;;;;;8.45;6.20;;;;;;;22.64;48.77;99535.41;4955551;28;20417;-88
2023/06/10 00:41:54;;;;;;;7.00;6.30;;;;;;;22.66;48.62;99538.72;4925326;28;20047;-87
2023/06/10 00:44:21;;;;;;;7.05;5.97;;;;;;;22.61;48.80;99546.69;4947950;28;20051;-88
2023/06/10 00:46:51;;;;;;;7.65;5.95;;;;;;;22.62;48.91;99544.81;4934712;28;20047;-88
2023/06/10 00:49:18;;;;;;;7.80;6.07;;;;;;;22.62;48.65;99555.63;4957570;28;20055;-86
2023/06/10 00:51:46;;;;;;;7.47;6.22;;;;;;;22.54;48.95;99544.06;4938741;28;20054;-88
2023/06/10 00:54:14;;;;;;;8.70;6.25;;;;;;;22.53;48.91;99550.50;4951313;28;20434;-89
2023/06/10 00:56:42;;;;;;;7.45;6.68;;;;;;;22.52;48.75;99548.03;4926592;28;20051;-88
2023/06/10 00:59:10;;;;;;;6.72;6.13;;;;;;;22.50;48.97;99545.53;4921590;28;20170;-88
2023/06/10 01:01:38;;;;;;;7.25;6.50;;;;;;;22.43;48.96;99549.34;4922762;28;20048;-87
2023/06/10 01:04:05;;;;;;;6.90;6.20;;;;;;;22.44;49.02;99551.00;4933119;28;20055;-88
2023/06/10 01:06:52;;;;;;;8.75;6.03;;;;;;;22.35;49.09;99553.16;4921530;28;20059;-89
2023/06/10 01:09:45;;;;;;;8.32;6.80;;;;;;;22.37;48.95;99555.66;4919093;28;20047;-89
2023/06/10 01:12:24;;;;;;;7.68;6.18;;;;;;;22.26;49.24;99554.44;4901145;28;20134;-86
2023/06/10 01:14:52;;;;;;;6.80;5.88;;;;;;;22.34;48.87;99546.09;4905845;28;20175;-88
2023/06/10 01:17:18;;;;;;;7.57;6.38;;;;;;;22.36;48.93;99556.69;4920787;28;20052;-89
2023/06/10 01:19:56;;;;;;;6.72;6.13;;;;;;;22.27;49.37;99553.41;4920057;28;20078;-87
2023/06/10 01:22:25;;;;;;;9.23;6.60;;;;;;;22.33;48.90;99556.06;4925695;28;20503;-88
2023/06/10 01:24:52;;;;;;;7.03;6.32;;;;;;;22.29;49.06;99549.44;4912362;28;20090;-87
2023/06/10 01:27:21;;;;;;;7.65;6.20;;;;;;;22.23;49.30;99558.41;4902253;28;20075;-88
2023/06/10 01:29:54;;;;;;;7.15;6.45;;;;;;;22.14;49.90;99557.00;4924301;28;20055;-87
2023/06/10 01:32:49;;;;;;;8.40;6.35;;;;;;;22.14;50.23;99558.91;4905856;28;20096;-88
2023/06/10 01:35:16;;;;;;;8.68;6.43;;;;;;;22.11;49.71;99557.47;4958590;28;20133;-88
2023/06/10 01:37:46;;;;;;;7.50;6.80;;;;;;;22.18;49.65;99555.50;4921917;28;20054;-89
2023/06/10 01:40:14;;;;;;;7.07;5.85;;;;;;;22.25;48.67;99555.50;4923854;28;20149;-88
2023/06/10 01:42:41;;;;;;;7.53;6.68;;;;;;;22.26;48.75;99554.44;4930810;28;20051;-87
2023/06/10 01:45:08;;;;;;;11.20;6.82;;;;;;;22.27;48.60;99559.66;4924552;28;20043;-88
2023/06/10 01:47:35;;;;;;;7.88;7.07;;;;;;;22.25;49.13;99560.91;4928535;28;20048;-88
2023/06/10 01:50:03;;;;;;;7.18;6.18;;;;;;;22.24;49.34;99568.22;4918291;28;20047;-87
2023/06/10 01:52:33;;;;;;;6.85;6.13;;;;;;;22.19;49.32;99561.78;4921650;28;20043;-87
2023/06/10 01:55:03;;;;;;;7.57;6.07;;;;;;;22.21;49.27;99559.69;4946326;28;20051;-89
2023/06/10 01:57:30;;;;;;;7.47;6.30;;;;;;;22.19;49.45;99553.66;4879066;28;20054;-88
2023/06/10 02:00:00;;;;;;;7.30;6.55;;;;;;;22.19;49.31;99561.78;4927891;28;20055;-89
2023/06/10 02:02:30;;;;;;;8.30;6.63;;;;;;;22.16;49.57;99556.78;4895506;28;20522;-89
2023/06/10 02:04:58;;;;;;;6.95;6.15;;;;;;;22.12;49.51;99553.69;4919793;28;20139;-88
2023/06/10 02:07:28;;;;;;;8.57;6.22;;;;;;;22.13;49.64;99558.03;4901506;28;20070;-88
2023/06/10 02:09:55;;;;;;;6.68;6.07;;;;;;;22.07;49.41;99550.81;4936081;28;20054;-86
2023/06/10 02:12:22;;;;;;;6.50;5.90;;;;;;;22.07;49.71;99562.44;4900976;28;20053;-87
2023/06/10 02:14:53;;;;;;;8.60;5.80;;;;;;;22.05;49.74;99566.41;4933980;28;20132;-88
2023/06/10 02:17:23;;;;;;;7.85;6.68;;;;;;;22.06;49.69;99568.09;4910462;28;20566;-87
2023/06/10 02:19:52;;;;;;;6.80;6.20;;;;;;;22.00;49.75;99566.25;4900973;28;20058;-88
2023/06/10 02:22:22;;;;;;;7.65;6.35;;;;;;;21.98;50.01;99562.91;4912932;28;20534;-88
2023/06/10 02:24:49;;;;;;;7.35;6.32;;;;;;;21.94;49.97;99564.41;4905900;28;20051;-89
2023/06/10 02:27:18;;;;;;;7.47;5.68;;;;;;;21.99;50.05;99570.00;4894214;28;20510;-87
2023/06/10 02:29:45;;;;;;;6.20;5.60;;;;;;;21.94;50.05;99570.66;4926661;28;20051;-89
2023/06/10 02:32:12;;;;;;;6.80;6.10;;;;;;;21.91;50.50;99564.84;4882847;28;20677;-87
2023/06/10 02:34:45;;;;;;;6.70;6.10;;;;;;;21.88;50.23;99564.22;4928282;28;20598;-89
2023/06/10 02:37:13;;;;;;;9.10;6.20;;;;;;;21.83;50.48;99571.31;4916599;28;20053;-87
2023/06/10 02:39:41;;;;;;;7.85;6.38;;;;;;;21.78;50.56;99566.56;4899399;28;20044;-89
2023/06/10 02:42:11;;;;;;;6.63;5.95;;;;;;;21.77;50.80;99575.72;4902783;28;20578;-87
2023/06/10 02:44:41;;;;;;;6.82;6.13;;;;;;;21.78;50.68;99568.44;4908659;28;20047;-87
2023/06/10 02:47:12;;;;;;;9.13;6.95;;;;;;;21.63;50.96;99569.53;4908117;28;20058;-88
2023/06/10 02:49:40;;;;;;;7.38;6.40;;;;;;;21.62;51.45;99572.44;4928188;28;20201;-87
2023/06/10 02:52:08;;;;;;;7.63;6.85;;;;;;;21.56;51.58;99576.84;4900856;28;20451;-88
2023/06/10 02:54:35;;;;;;;6.78;6.15;;;;;;;21.55;51.59;99564.38;4918411;28;20386;-90
2023/06/10 02:57:07;;;;;;;7.53;6.65;;;;;;;21.53;51.69;99571.06;4886262;28;20051;-88
2023/06/10 02:59:37;;;;;;;9.00;7.35;;;;;;;21.50;51.72;99571.44;4914401;28;20055;-88
2023/06/10 03:02:05;;;;;;;6.88;6.18;;;;;;;21.39;52.12;99581.88;4921103;28;20303;-87
2023/06/10 03:04:44;;;;;;;7.10;6.40;;;;;;;21.40;52.12;99571.94;4897392;28;20052;-88
2023/06/10 03:07:16;;;;;;;8.48;7.22;;;;;;;21.32;52.26;99574.81;4919639;28;20055;-88
2023/06/10 03:09:43;;;;;;;8.80;7.03;;;;;;;21.32;52.05;99567.56;4901036;28;20400;-88
2023/06/10 03:12:15;;;;;;;9.13;6.90;;;;;;;21.38;52.05;99572.13;4909939;28;20483;-88
2023/06/10 03:14:46;;;;;;;7.53;6.40;;;;;;;21.26;52.73;99571.09;4937273;28;20074;-89
2023/06/10 03:17:20;;;;;;;7.28;6.60;;;;;;;21.26;52.73;99565.69;4917799;28;20051;-88
2023/06/10 03:19:49;;;;;;;7.72;6.93;;;;;;;21.22;52.65;99578.78;4891778;28;20055;-88
2023/06/10 03:22:17;;;;;;;7.40;6.55;;;;;;;21.23;52.97;99571.50;4885061;28;20210;-87
2023/06/10 03:25:00;;;;;;;7.60;6.32;;;;;;;21.21;53.25;99577.13;4917409;28;20077;-89
2023/06/10 03:27:30;;;;;;;9.73;6.53;;;;;;;21.21;52.93;99585.22;4908359;28;20048;-88
2023/06/10 03:30:00;;;;;;;8.10;6.63;;;;;;;21.19;53.28;99581.06;4934516;28;20050;-87
2023/06/10 03:32:30;;;;;;;9.60;6.22;;;;;;;21.16;53.11;99587.72;4904920;28;20139;-87
2023/06/10 03:35:00;;;;;;;8.70;6.90;;;;;;;21.18;53.34;99592.91;4889280;28;20048;-89
2023/06/10 03:37:29;;;;;;;7.28;6.40;;;;;;;21.18;52.98;99588.34;4898127;28;20051;-88
2023/06/10 03:40:01;;;;;;;7.50;6.80;;;;;;;21.21;53.02;99587.91;4909602;28;20139;-87
2023/06/10 03:42:31;;;;;;;7.35;6.65;;;;;;;21.22;52.82;99588.78;4895217;28;20388;-88
2023/06/10 03:45:04;;;;;;;7.70;5.95;;;;;;;21.31;52.75;99592.06;4889503;28;20051;-87
2023/06/10 03:47:37;;;;;;;7.25;6.55;;;;;;;21.33;53.10;99592.69;4924170;28;20047;-88
2023/06/10 03:50:09;;;;;;;9.60;7.18;;;;;;;21.43;53.76;99601.22;4908993;28;20057;-88
2023/06/10 03:52:41;;;;;;;;;;;;;;;21.13;54.92;99600.81;4907324;28;20043;-88
2023/06/10 03:55:13;;;;;;;7.88;7.05;;;;;;;21.71;55.09;99600.91;4903874;28;20132;-88
2023/06/10 03:57:43;;;;;;;9.10;6.95;;;;;;;22.22;54.57;99608.16;4893516;28;20047;-88
2023/06/10 04:00:15;;;;;;;8.07;7.10;;;;;;;22.99;53.00;99599.91;4899551;28;20044;-89
2023/06/10 04:02:52;;;;;;;8.07;6.95;;;;;;;23.69;50.86;99605.00;4908541;28;20612;-87
2023/06/10 04:05:28;;;;;;;7.28;6.57;;;;;;;24.18;48.79;99602.31;4929737;28;20134;-88
2023/06/10 04:08:01;;;;;;;7.95;7.22;;;;;;;24.20;48.25;99603.75;4918162;28;20051;-88
2023/06/10 04:10:31;;;;;;;8.32;7.53;;;;;;;23.90;48.78;99600.19;4916616;28;20498;-88
2023/06/10 04:13:01;;;;;;;7.45;6.68;;;;;;;23.65;49.17;99601.09;4923274;28;20135;-87
2023/06/10 04:15:34;;;;;;;8.07;7.05;;;;;;;23.44;49.87;99596.13;4957878;28;20046;-88
2023/06/10 04:18:08;;;;;;;8.57;7.70;;;;;;;23.34;50.03;99602.88;4943363;28;20070;-88
2023/06/10 04:20:41;;;;;;;7.80;7.00;;;;;;;23.27;50.33;99604.84;4950441;28;20058;-89
2023/06/10 04:23:11;;;;;;;7.80;6.90;;;;;;;23.25;50.55;99606.94;4943617;28;20768;-88
2023/06/10 04:25:42;;;;;;;8.00;6.75;;;;;;;23.18;50.64;99607.03;4918953;28;20059;-87
2023/06/10 04:28:10;;;;;;;8.02;7.32;;;;;;;23.10;50.72;99604.59;4910376;28;20043;-88
2023/06/10 04:30:41;;;;;;;7.50;6.55;;;;;;;23.12;50.94;99613.31;4892494;28;20039;-89
2023/06/10 04:33:09;;;;;;;7.82;6.75;;;;;;;23.15;50.63;99610.19;4907581;28;20044;-88
2023/06/10 04:35:39;;;;;;;7.82;7.07;;;;;;;23.01;50.48;99605.94;4938413;28;20047;-88
2023/06/10 04:38:08;;;;;;;7.78;6.38;;;;;;;23.08;50.99;99614.81;4921409;28;20502;-87
2023/06/10 04:40:38;;;;;;;9.00;7.00;;;;;;;23.08;50.88;99603.16;4931406;28;20043;-88
2023/06/10 04:43:08;;;;;;;8.63;7.78;;;;;;;23.08;50.95;99619.44;4928543;28;20470;-87
2023/06/10 04:45:36;;;;;;;7.35;6.65;;;;;;;23.09;50.72;99605.63;4945499;28;20059;-88
2023/06/10 04:48:05;;;;;;;8.68;6.72;;;;;;;23.07;50.85;99620.47;4928692;28;20600;-88
2023/06/10 04:50:32;;;;;;;10.45;7.85;;;;;;;23.07;50.37;99617.75;4913207;28;20055;-87
2023/06/10 04:53:00;;;;;;;7.90;7.15;;;;;;;22.92;50.47;99626.19;4901384;28;20122;-87
2023/06/10 04:55:28;;;;;;;8.38;7.43;;;;;;;22.95;50.54;99623.88;4933147;28;20049;-87
2023/06/10 04:58:00;;;;;;;7.90;7.20;;;;;;;22.90;51.16;99620.19;4907118;28;20415;-88
2023/06/10 05:00:27;;;;;;;8.25;7.30;;;;;;;22.87;51.27;99620.59;4909800;28;20051;-87
2023/06/10 05:02:57;;;;;;;9.32;7.47;;;;;;;22.79;51.48;99621.69;4915914;28;20059;-88
2023/06/10 05:05:27;;;;;;;9.50;6.82;;;;;;;22.89;49.69;99623.91;4908100;28;20040;-87
2023/06/10 05:07:54;;;;;;;8.45;7.60;;;;;;;22.82;50.77;99632.13;4909932;28;20055;-89
2023/06/10 05:10:21;;;;;;;9.07;7.80;;;;;;;22.87;48.90;99621.44;4936934;28;20078;-89
2023/06/10 05:12:48;;;;;;;11.70;7.20;;;;;;;22.86;48.31;99627.91;4949796;28;20406;-87
2023/06/10 05:15:15;;;;;;;8.80;7.90;;;;;;;22.94;49.12;99633.03;4935356;28;20047;-88
2023/06/10 05:17:42;;;;;;;7.45;6.75;;;;;;;22.92;49.07;99635.16;4957215;28;20050;-88
2023/06/10 05:20:09;;;;;;;8.90;7.50;;;;;;;22.92;48.71;99631.59;4947204;28;20047;-88
2023/06/10 05:22:36;;;;;;;7.75;7.00;;;;;;;22.94;50.32;99633.03;4939314;28;20195;-87
2023/06/10 05:25:03;;;;;;;10.93;7.70;;;;;;;22.94;51.21;99630.31;4921364;28;20043;-87
2023/06/10 05:27:30;;;;;;;12.25;7.30;;;;;;;22.93;51.73;99636.78;4926254;28;20461;-87
2023/06/10 05:29:57;;;;;;;8.23;7.53;;;;;;;22.92;52.00;99642.41;4922953;28;20055;-87
2023/06/10 05:32:23;;;;;;;8.40;7.03;;;;;;;22.90;52.36;99637.25;4909398;28;20063;-87
2023/06/10 05:34:50;;;;;;;10.82;8.15;;;;;;;22.92;51.99;99631.59;4942557;28;20050;-87
2023/06/10 05:37:17;;;;;;;9.43;7.82;;;;;;;22.95;52.18;99642.81;4938227;28;20110;-88
2023/06/10 05:39:44;;;;;;;9.90;7.53;;;;;;;22.95;51.84;99645.53;4903253;28;21490;-88
2023/06/10 05:42:11;;;;;;;9.15;7.65;;;;;;;23.01;51.87;99634.91;4947546;28;20043;-87
2023/06/10 05:44:38;;;;;;;8.68;7.78;;;;;;;23.08;51.86;99643.81;4931173;28;20058;-88
2023/06/10 05:47:05;;;;;;;10.32;8.32;;;;;;;23.12;52.34;99645.81;4957436;28;20390;-88
2023/06/10 05:49:31;;;;;;;8.95;8.00;;;;;;;23.07;52.20;99628.56;4939251;28;20399;-87
2023/06/10 05:51:59;;;;;;;9.02;8.13;;;;;;;23.13;52.04;99641.25;4911609;28;20056;-88
2023/06/10 05:54:26;;;;;;;8.32;7.53;;;;;;;23.16;51.70;99640.81;4906599;28;20588;-88
2023/06/10 05:56:55;;;;;;;10.63;7.80;;;;;;;23.12;51.98;99645.00;4941307;28;20058;-87
2023/06/10 05:59:25;;;;;;;8.73;7.90;;;;;;;23.17;51.95;99648.69;4942108;28;20053;-88
2023/06/10 06:01:52;;;;;;;9.88;8.32;;;;;;;23.23;52.11;99651.56;4901979;28;20071;-88
2023/06/10 06:04:20;;;;;;;9.00;8.07;;;;;;;23.25;51.62;99653.00;4921624;28;20522;-89
2023/06/10 06:06:47;;;;;;;7.70;6.90;;;;;;;23.27;50.15;99647.34;4935661;28;20606;-86
2023/06/10 06:09:14;;;;;;;10.98;9.88;;;;;;;23.28;50.93;99651.72;4957576;28;20700;-88
2023/06/10 06:11:41;;;;;;;9.30;8.27;;;;;;;23.31;51.19;99641.28;4941213;28;20054;-88
2023/06/10 06:14:08;;;;;;;9.32;8.27;;;;;;;23.26;50.82;99643.81;4924627;28;20047;-88
2023/06/10 06:16:35;;;;;;;11.65;7.93;;;;;;;23.25;50.68;99647.56;4923121;28;20043;-88
2023/06/10 06:19:02;;;;;;;8.38;7.55;;;;;;;23.30;50.08;99649.63;4953968;28;20043;-88
2023/06/10 06:21:29;;;;;;;8.95;7.60;;;;;;;23.31;50.19;99651.28;4952384;28;20501;-88
2023/06/10 06:23:56;;;;;;;9.82;8.10;;;;;;;23.36;49.46;99652.28;4956777;28;20055;-89
2023/06/10 06:26:23;;;;;;;8.85;7.18;;;;;;;23.32;49.77;99651.03;4940807;28;20141;-90
2023/06/10 06:28:50;;;;;;;8.52;7.53;;;;;;;23.30;48.95;99657.75;4937960;28;20050;-88
2023/06/10 06:31:16;;;;;;;8.38;7.10;;;;;;;23.32;49.00;99656.47;4930115;28;20055;-88
2023/06/10 06:33:46;;;;;;;8.30;7.45;;;;;;;23.24;48.85;99648.63;4905214;28;20479;-87
2023/06/10 06:36:13;;;;;;;9.20;7.63;;;;;;;23.27;48.63;99639.22;4902990;28;20063;-88
2023/06/10 06:38:40;;;;;;;8.35;7.55;;;;;;;23.33;48.74;99646.44;4926990;28;20051;-88
2023/06/10 06:41:07;;;;;;;8.20;7.38;;;;;;;23.34;48.91;99648.94;4918412;28;20050;-88
2023/06/10 06:43:34;;;;;;;10.40;8.00;;;;;;;23.35;48.84;99650.59;4899330;28;20050;-88
2023/06/10 06:46:21;;;;;;;9.02;8.13;;;;;;;23.36;48.81;99641.44;4938843;28;20047;-87
2023/06/10 06:48:48;;;;;;;7.97;7.18;;;;;;;23.42;48.96;99647.00;4924822;28;20039;-88
2023/06/10 06:51:15;;;;;;;8.80;7.78;;;;;;;23.42;48.77;99647.00;4915564;28;20132;-87
2023/06/10 06:53:44;;;;;;;10.30;7.63;;;;;;;23.44;48.88;99644.91;4931846;28;20573;-89
2023/06/10 06:56:12;;;;;;;9.80;7.43;;;;;;;23.46;48.59;99645.50;4922650;28;20649;-87
2023/06/10 06:58:39;;;;;;;10.27;7.60;;;;;;;23.45;48.75;99646.56;4936177;28;20495;-87
2023/06/10 07:01:06;;;;;;;9.75;7.55;;;;;;;23.45;49.29;99647.38;4918379;28;20431;-89
2023/06/10 07:03:32;;;;;;;9.38;7.30;;;;;;;23.49;48.78;99647.78;4912681;28;20102;-88
2023/06/10 07:05:59;;;;;;;8.15;7.35;;;;;;;23.53;49.08;99643.53;4953353;28;20043;-88
2023/06/10 07:08:26;;;;;;;9.23;7.75;;;;;;;23.56;49.19;99643.09;4928560;28;20051;-88
2023/06/10 07:10:54;;;;;;;8.65;7.78;;;;;;;23.55;49.20;99636.84;4927038;28;20066;-89
2023/06/10 07:13:20;;;;;;;9.13;7.20;;;;;;;23.62;49.09;99640.31;4980257;28;20066;-88
2023/06/10 07:15:47;;;;;;;9.40;6.93;;;;;;;23.61;48.85;99638.66;4911667;28;20440;-90
2023/06/10 07:18:16;;;;;;;7.95;7.15;;;;;;;23.68;49.20;99644.00;4896740;28;20044;-90
2023/06/10 07:20:42;;;;;;;11.05;7.13;;;;;;;23.67;49.25;99631.50;4928787;28;20574;-89
2023/06/10 07:23:09;;;;;;;9.35;7.97;;;;;;;23.71;48.82;99643.56;4910793;28;20051;-88
2023/06/10 07:25:36;;;;;;;8.52;6.95;;;;;;;23.71;49.16;99640.84;4917386;28;20593;-90
2023/06/10 07:28:03;;;;;;;8.00;7.05;;;;;;;23.76;48.95;99642.91;4901774;28;20074;-90
2023/06/10 07:30:30;;;;;;;8.27;7.45;;;;;;;23.73;48.77;99637.94;4892035;28;20043;-89
2023/06/10 07:32:57;;;;;;;8.60;7.15;;;;;;;23.75;49.03;99642.06;4921520;28;20043;-88
2023/06/10 07:35:24;;;;;;;8.07;7.28;;;;;;;23.76;49.29;99632.91;4947401;28;20129;-88
2023/06/10 07:37:54;;;;;;;7.35;6.55;;;;;;;23.88;49.45;99641.09;4918419;28;20078;-90
2023/06/10 07:40:22;;;;;;;8.63;6.13;;;;;;;23.89;49.20;99640.03;4941071;28;20109;-88
2023/06/10 07:42:48;;;;;;;7.78;6.75;;;;;;;23.90;48.83;99638.97;4902777;28;20055;-89
2023/06/10 07:45:15;;;;;;;7.28;6.57;;;;;;;23.93;49.09;99638.53;4930187;28;20063;-88
2023/06/10 07:47:42;;;;;;;7.53;6.78;;;;;;;23.94;48.97;99640.19;4920178;28;20180;-88
2023/06/10 07:50:09;;;;;;;7.70;7.00;;;;;;;23.93;48.85;99643.94;4910778;28;20047;-88
2023/06/10 07:52:36;;;;;;;7.93;6.72;;;;;;;23.97;49.26;99636.19;4922658;28;20058;-88
2023/06/10 07:55:04;;;;;;;7.53;6.53;;;;;;;24.01;48.98;99645.50;4938279;28;20515;-90
2023/06/10 07:57:34;;;;;;;7.65;6.95;;;;;;;24.02;48.40;99636.34;4926746;28;20047;-90
2023/06/10 08:00:04;;;;;;;8.00;7.25;;;;;;;24.04;48.75;99642.34;4923924;28;20078;-87
2023/06/10 08:02:38;;;;;;;8.85;7.10;;;;;;;24.06;49.04;99642.94;4936137;28;20055;-88
2023/06/10 08:05:06;;;;;;;7.10;6.40;;;;;;;24.07;48.87;99633.78;4921933;28;20054;-90
2023/06/10 08:07:33;;;;;;;7.15;6.45;;;;;;;24.16;49.54;99636.97;4951972;28;20609;-88
2023/06/10 08:10:00;;;;;;;8.05;6.97;;;;;;;24.17;49.64;99630.47;4956151;28;20051;-89
2023/06/10 08:12:28;;;;;;;6.80;6.10;;;;;;;24.18;49.14;99634.88;4959239;28;20516;-90
2023/06/10 08:14:55;;;;;;;7.18;6.18;;;;;;;24.22;49.34;99630.63;4932267;28;20040;-90
2023/06/10 08:17:23;;;;;;;7.28;6.22;;;;;;;24.26;49.04;99631.81;4941293;28;20050;-89
2023/06/10 08:19:50;;;;;;;6.90;6.20;;;;;;;24.24;48.82;99632.03;4961139;28;20047;-89
2023/06/10 08:22:17;;;;;;;7.25;6.53;;;;;;;24.23;48.68;99632.28;4926468;28;20075;-89
2023/06/10 08:24:43;;;;;;;6.78;6.07;;;;;;;24.27;48.83;99634.31;4924080;28;20070;-88
2023/06/10 08:27:14;;;;;;;7.55;6.32;;;;;;;24.31;49.14;99634.69;4930401;28;20055;-87
2023/06/10 08:29:41;;;;;;;6.82;6.13;;;;;;;24.35;47.93;99626.88;4918041;28;20051;-89
2023/06/10 08:32:08;;;;;;;6.28;5.68;;;;;;;24.34;48.10;99626.06;4903905;28;20067;-89
2023/06/10 08:34:35;;;;;;;6.07;5.57;;;;;;;24.33;49.25;99619.00;4939993;28;20477;-89
2023/06/10 08:37:03;;;;;;;6.60;6.00;;;;;;;24.37;48.75;99625.59;4941435;28;20051;-88
2023/06/10 08:39:31;;;;;;;6.60;5.88;;;;;;;24.38;48.30;99621.84;4925769;28;20130;-89
2023/06/10 08:42:11;;;;;;;8.00;6.50;;;;;;;24.35;48.80;99630.44;4916943;28;20758;-88
2023/06/10 08:44:40;;;;;;;7.00;6.05;;;;;;;24.42;48.45;99635.78;4928142;28;20075;-87
2023/06/10 08:47:13;;;;;;;6.97;6.32;;;;;;;24.40;47.02;99637.88;4896764;28;20567;-87
2023/06/10 08:49:45;;;;;;;6.43;5.82;;;;;;;24.43;47.36;99634.72;4933459;28;20493;-87
2023/06/10 08:52:19;;;;;;;6.60;6.00;;;;;;;24.35;46.13;99635.88;4926300;28;20047;-89
2023/06/10 08:54:57;;;;;;;6.95;5.45;;;;;;;24.31;46.10;99634.69;4950387;28;20357;-86
2023/06/10 08:57:25;;;;;;;7.05;5.40;;;;;;;24.46;46.39;99629.69;4928238;28;20069;-87
2023/06/10 08:59:53;;;;;;;7.03;6.15;;;;;;;24.48;45.64;99626.75;4924768;28;20503;-90
2023/06/10 09:02:20;;;;;;;7.50;6.10;;;;;;;24.46;46.38;99618.81;4911621;28;20454;-88
2023/06/10 09:04:49;;;;;;;7.38;5.80;;;;;;;24.47;46.17;99620.50;4939663;28;20047;-89
2023/06/10 09:07:16;;;;;;;6.90;6.20;;;;;;;24.53;46.80;99617.91;4930054;28;20524;-87
2023/06/10 09:09:44;;;;;;;6.63;6.03;;;;;;;24.56;46.95;99612.00;4920040;28;20490;-89
2023/06/10 09:12:13;;;;;;;6.75;5.85;;;;;;;24.57;46.14;99616.38;4943990;28;20051;-87
2023/06/10 09:14:41;;;;;;;7.00;6.30;;;;;;;24.59;46.01;99612.38;4959099;28;20054;-88
2023/06/10 09:17:08;;;;;;;8.27;6.60;;;;;;;24.62;45.65;99616.50;4959031;28;20051;-89
2023/06/10 09:19:35;;;;;;;6.75;5.97;;;;;;;24.60;45.32;99613.19;4943870;28;20136;-90
2023/06/10 09:22:02;;;;;;;11.40;6.65;;;;;;;24.63;45.33;99613.56;4926831;28;20529;-89
2023/06/10 09:24:29;;;;;;;7.07;6.38;;;;;;;24.59;45.39;99600.69;4915446;28;20118;-88
2023/06/10 09:27:06;;;;;;;6.35;5.75;;;;;;;24.62;44.89;99605.63;4909557;28;20043;-86
2023/06/10 09:29:54;;;;;;;6.80;6.20;;;;;;;24.54;44.36;99606.81;4944817;28;20047;-89
2023/06/10 09:32:21;;;;;;;8.45;7.07;;;;;;;24.65;45.43;99611.44;4959689;28;20170;-88
2023/06/10 09:34:50;;;;;;;7.30;6.60;;;;;;;24.68;45.46;99613.69;4933977;28;20071;-87
2023/06/10 09:37:21;;;;;;;8.35;6.35;;;;;;;24.75;45.49;99604.59;4902783;28;20057;-89
2023/06/10 09:40:06;;;;;;;7.28;6.47;;;;;;;24.69;45.19;99607.19;4958530;28;20051;-88
2023/06/10 09:42:38;;;;;;;23.45;6.82;;;;;;;24.82;45.14;99602.59;4937274;28;20135;-90
2023/06/10 09:45:06;;;;;;;9.20;6.25;;;;;;;24.85;45.29;99615.72;4917118;28;20078;-88
2023/06/10 09:47:34;;;;;;;7.38;6.65;;;;;;;24.88;44.36;99602.50;4951890;28;20052;-89
2023/06/10 09:50:01;;;;;;;7.50;6.40;;;;;;;24.87;44.19;99603.53;4916298;28;20391;-89
2023/06/10 09:52:29;;;;;;;7.68;6.18;;;;;;;24.89;44.41;99612.28;4964576;28;20105;-90
2023/06/10 09:55:01;;;;;;;8.30;7.50;;;;;;;24.89;44.31;99601.44;4932323;28;21186;-88
2023/06/10 09:57:33;;;;;;;7.60;6.80;;;;;;;24.90;44.08;99602.25;4950932;28;20058;-85
2023/06/10 10:00:13;;;;;;;6.70;6.10;;;;;;;24.91;44.67;99595.78;4933428;28;20571;-89
2023/06/10 10:02:48;;;;;;;6.55;5.95;;;;;;;24.94;44.42;99594.47;4907261;28;20130;-89
2023/06/10 10:05:17;;;;;;;9.00;6.65;;;;;;;24.99;44.50;99587.25;4939527;28;20055;-88
2023/06/10 10:07:44;;;;;;;6.88;6.18;;;;;;;25.04;44.47;99603.69;4915893;28;20047;-88
2023/06/10 10:10:13;;;;;;;7.07;5.50;;;;;;;25.08;44.29;99607.56;4921180;28;20056;-87
2023/06/10 10:12:42;;;;;;;7.13;6.43;;;;;;;25.06;43.97;99585.25;4915910;28;20561;-89
2023/06/10 10:15:10;;;;;;;6.70;6.05;;;;;;;25.10;43.75;99591.84;4936014;28;20060;-87
2023/06/10 10:17:45;;;;;;;7.90;6.63;;;;;;;25.03;42.85;99584.88;4958260;28;20065;-88
2023/06/10 10:20:13;;;;;;;6.50;5.75;;;;;;;25.08;43.76;99583.13;4937128;28;20070;-90
2023/06/10 10:22:41;;;;;;;6.63;6.03;;;;;;;25.15;43.72;99591.16;4939232;28;20047;-88
2023/06/10 10:25:12;;;;;;;7.75;5.88;;;;;;;25.11;41.43;99598.97;4958830;28;20043;-88
2023/06/10 10:27:51;;;;;;;6.30;5.22;;;;;;;25.17;42.19;99582.81;4937183;28;20043;-88
2023/06/10 10:30:20;;;;;;;5.90;5.30;;;;;;;25.15;42.46;99576.75;4931050;28;20137;-90
2023/06/10 10:32:55;;;;;;;6.45;5.75;;;;;;;25.11;41.56;99574.50;4911262;28;20315;-88
2023/06/10 10:35:24;;;;;;;5.88;5.28;;;;;;;25.13;42.28;99572.34;4917188;28;20055;-87
2023/06/10 10:37:54;;;;;;;6.13;5.55;;;;;;;25.17;42.64;99561.06;4924502;28;20102;-89
2023/06/10 10:40:22;;;;;;;9.18;5.75;;;;;;;25.20;42.67;99564.13;4919331;28;20039;-87
2023/06/10 10:42:50;;;;;;;8.63;5.43;;;;;;;25.26;41.88;99570.50;4917204;28;20047;-87
2023/06/10 10:45:17;;;;;;;5.95;5.40;;;;;;;25.22;41.98;99562.00;4959664;28;20572;-87
2023/06/10 10:47:52;;;;;;;6.00;5.45;;;;;;;25.20;42.37;99569.56;4942486;28;20054;-89
2023/06/10 10:50:20;;;;;;;5.68;4.70;;;;;;;25.27;42.36;99575.69;4933942;28;20051;-90
2023/06/10 10:52:59;;;;;;;6.10;5.50;;;;;;;25.24;41.77;99559.03;4962052;28;20063;-90
2023/06/10 10:55:27;;;;;;;5.55;5.05;;;;;;;25.39;42.23;99572.13;4903902;28;20417;-89
2023/06/10 10:58:07;;;;;;;5.30;4.80;;;;;;;25.31;41.40;99557.84;4921482;28;20525;-88
2023/06/10 11:00:36;;;;;;;5.25;4.75;;;;;;;25.42;42.44;99555.38;4932786;28;20047;-88
2023/06/10 11:03:03;;;;;;;5.82;5.05;;;;;;;25.43;42.52;99565.16;4926401;28;20042;-88
2023/06/10 11:05:48;;;;;;;5.68;4.65;;;;;;;25.43;41.85;99562.44;4926528;28;20055;-88
2023/06/10 11:08:35;;;;;;;5.60;5.10;;;;;;;25.40;41.38;99563.75;4928074;28;20083;-89
2023/06/10 11:11:18;;;;;;;5.88;5.38;;;;;;;25.47;42.18;99577.22;4926964;28;20082;-89
2023/06/10 11:14:12;;;;;;;5.88;4.82;;;;;;;25.49;42.61;99569.63;4935198;28;20057;-90
2023/06/10 11:16:42;;;;;;;;;;;;;;;25.42;41.85;99567.06;4928465;28;20047;-88
2023/06/10 11:19:09;;;;;;;6.55;5.32;;;;;;;25.57;42.00;99558.41;4952147;28;19977;-87
2023/06/10 11:22:01;;;;;;;6.88;6.18;;;;;;;25.49;41.99;99554.16;4928344;28;20046;-89
2023/06/10 11:24:29;;;;;;;7.00;6.05;;;;;;;25.57;42.19;99574.72;4947156;28;20050;-89
2023/06/10 11:27:28;;;;;;;10.38;5.95;;;;;;;25.58;42.68;99560.03;4915951;28;20502;-90
2023/06/10 11:29:57;;;;;;;9.02;5.15;;;;;;;25.69;42.12;99544.75;4923327;28;20050;-89
2023/06/10 11:32:32;;;;;;;7.55;5.45;;;;;;;25.66;42.09;99537.06;4951821;28;20460;-88
2023/06/10 11:35:02;;;;;;;6.32;5.20;;;;;;;25.76;42.52;99543.53;4915285;28;20047;-89
2023/06/10 11:37:29;;;;;;;8.10;5.60;;;;;;;25.82;42.71;99547.16;4942789;28;20204;-88
2023/06/10 11:39:56;;;;;;;8.45;5.78;;;;;;;25.89;42.40;99552.50;4944780;28;20496;-88
2023/06/10 11:42:23;;;;;;;5.18;4.68;;;;;;;25.87;42.23;99557.34;4955324;28;20428;-87
2023/06/10 11:44:51;;;;;;;5.70;5.20;;;;;;;25.89;41.74;99547.88;4975105;28;20122;-87
2023/06/10 11:47:18;;;;;;;5.60;4.80;;;;;;;25.94;41.86;99544.44;4944835;28;20073;-89